Time;durP1;ratioP1;P1;durP2;ratioP2;P2;SDS_P1;SDS_P2;PMS_P1;PMS_P2;Temp;Humidity;BMP_temperature;BMP_pressure;BME280_temperature;BME280_humidity;BME280_pressure;Samples;Min_cycle;Max_cycle;Signal;HPM_P1;HPM_P2
2023/08/10 00:02:12;;;;;;;1.80;1.50;;;;;;;14.27;76.22;97463.05;108710;1254;101790;-84
2023/08/10 00:04:40;;;;;;;1.70;1.60;;;;;;;14.26;76.16;97465.95;108623;1257;99938;-87
2023/08/10 00:07:08;;;;;;;2.10;1.80;;;;;;;14.26;76.21;97468.39;108615;1257;94135;-84
2023/08/10 00:09:36;;;;;;;2.30;1.70;;;;;;;14.24;76.41;97468.80;108720;1254;94346;-85
2023/08/10 00:12:04;;;;;;;1.90;1.70;;;;;;;14.24;76.56;97471.23;108639;1255;101152;-85
2023/08/10 00:14:32;;;;;;;1.50;1.40;;;;;;;14.23;76.73;97471.44;108621;1257;101637;-85
2023/08/10 00:17:00;;;;;;;2.60;1.70;;;;;;;14.24;76.94;97476.83;108231;1259;100128;-87
2023/08/10 00:19:27;;;;;;;2.10;1.70;;;;;;;14.21;76.99;97479.91;108246;1259;94359;-85
2023/08/10 00:21:55;;;;;;;4.00;1.70;;;;;;;14.21;77.11;97479.20;108268;1260;94270;-86
2023/08/10 00:24:23;;;;;;;3.10;1.60;;;;;;;14.20;77.40;97476.08;108287;1261;102441;-85
2023/08/10 00:26:50;;;;;;;2.10;1.50;;;;;;;14.20;77.48;97479.60;108242;1260;101837;-85
2023/08/10 00:29:18;;;;;;;5.10;2.00;;;;;;;14.19;77.69;97478.27;108232;1261;100065;-85
2023/08/10 00:31:46;;;;;;;3.40;1.40;;;;;;;14.18;77.71;97479.38;108194;1260;94320;-85
2023/08/10 00:34:13;;;;;;;3.80;1.80;;;;;;;14.17;77.61;97482.13;108271;1260;94706;-86
2023/08/10 00:36:41;;;;;;;3.90;2.40;;;;;;;14.18;77.75;97482.25;108226;1259;102299;-86
2023/08/10 00:39:09;;;;;;;1.70;1.60;;;;;;;14.18;77.78;97482.20;108294;1260;101731;-85
2023/08/10 00:41:36;;;;;;;4.60;2.10;;;;;;;14.19;77.79;97481.79;108272;1259;98688;-86
2023/08/10 00:44:04;;;;;;;2.50;2.00;;;;;;;14.19;77.95;97480.66;108264;1261;94679;-84
2023/08/10 00:46:33;;;;;;;5.80;2.00;;;;;;;14.17;77.99;97482.43;108267;1261;94614;-85
2023/08/10 00:49:00;;;;;;;2.10;1.80;;;;;;;14.12;78.13;97486.16;108564;1256;102370;-85
2023/08/10 00:51:29;;;;;;;2.60;2.00;;;;;;;14.10;78.13;97486.98;108628;1257;111179;-86
2023/08/10 00:53:57;;;;;;;5.80;2.30;;;;;;;14.10;78.35;97489.65;108583;1254;100052;-85
2023/08/10 00:56:25;;;;;;;2.70;2.10;;;;;;;14.10;78.53;97492.41;108633;1254;94183;-86
2023/08/10 00:58:52;;;;;;;3.90;1.80;;;;;;;14.09;78.61;97493.42;108650;1254;95504;-86
2023/08/10 01:01:20;;;;;;;3.50;1.90;;;;;;;14.08;78.60;97498.61;108708;1255;111038;-86
2023/08/10 01:03:48;;;;;;;8.00;2.00;;;;;;;14.08;78.74;97499.14;108655;1256;101580;-85
2023/08/10 01:06:19;;;;;;;3.50;1.80;;;;;;;14.09;78.96;97500.10;108691;1254;100053;-84
2023/08/10 01:09:03;;;;;;;1.90;1.70;;;;;;;14.10;79.01;97498.08;108597;1256;94157;-84
2023/08/10 01:11:36;;;;;;;4.30;1.90;;;;;;;14.10;79.05;97496.12;108561;1254;94562;-87
2023/08/10 01:14:29;;;;;;;6.10;2.30;;;;;;;14.09;79.17;97495.05;108716;1254;102971;-86
2023/08/10 01:16:58;;;;;;;2.30;2.10;;;;;;;14.09;79.22;97503.02;108618;1257;100443;-84
2023/08/10 01:19:38;;;;;;;3.30;2.00;;;;;;;14.09;79.18;97504.77;108649;1257;100074;-86
2023/08/10 01:22:33;;;;;;;5.10;2.30;;;;;;;14.09;79.25;97506.40;108622;1257;94214;-85
2023/08/10 01:25:06;;;;;;;2.70;1.90;;;;;;;14.09;79.53;97513.71;108682;1254;94562;-86
2023/08/10 01:27:37;;;;;;;;;;;;;;;14.08;79.50;97514.06;108767;1254;102120;-84
2023/08/10 01:30:07;;;;;;;3.10;1.80;;;;;;;14.05;79.75;97517.27;108673;1256;101446;-85
2023/08/10 01:32:35;;;;;;;2.60;2.10;;;;;;;14.03;79.78;97514.98;108660;1254;99078;-85
2023/08/10 01:35:05;;;;;;;3.30;1.60;;;;;;;14.02;79.70;97516.38;108312;1260;94294;-85
2023/08/10 01:37:34;;;;;;;2.20;1.50;;;;;;;13.97;79.38;97514.55;108287;1260;94698;-86
2023/08/10 01:40:03;;;;;;;3.10;1.80;;;;;;;13.91;79.49;97517.20;108315;1260;102373;-86
2023/08/10 01:42:31;;;;;;;2.10;1.60;;;;;;;13.91;79.61;97516.21;108319;1260;101666;-86
2023/08/10 01:44:59;;;;;;;3.20;2.00;;;;;;;13.91;79.77;97515.67;108298;1260;99943;-86
2023/08/10 01:47:33;;;;;;;2.10;1.90;;;;;;;13.90;79.68;97518.27;108287;1260;94243;-85
2023/08/10 01:50:04;;;;;;;3.10;1.90;;;;;;;13.90;79.86;97512.71;108288;1260;94768;-85
2023/08/10 01:52:37;;;;;;;2.60;2.20;;;;;;;13.89;79.99;97515.40;108116;1260;102413;-85
2023/08/10 01:55:07;;;;;;;1.70;1.60;;;;;;;13.87;80.01;97512.72;108352;1259;101510;-85
2023/08/10 01:57:35;;;;;;;4.60;1.80;;;;;;;13.82;80.00;97509.41;108263;1259;100004;-85
2023/08/10 02:00:06;;;;;;;3.00;2.10;;;;;;;13.79;79.98;97510.73;108321;1259;94292;-85
2023/08/10 02:02:35;;;;;;;2.40;1.60;;;;;;;13.78;80.20;97510.27;108372;1259;94662;-85
2023/08/10 02:05:03;;;;;;;4.90;2.10;;;;;;;13.76;80.21;97508.44;108376;1260;102813;-84
2023/08/10 02:07:31;;;;;;;2.70;1.50;;;;;;;13.70;80.26;97510.73;108669;1254;101564;-86
2023/08/10 02:09:59;;;;;;;3.10;1.70;;;;;;;13.67;80.31;97509.48;108636;1255;99683;-85
2023/08/10 02:12:27;;;;;;;4.20;2.00;;;;;;;13.65;80.44;97506.59;108633;1256;94177;-85
2023/08/10 02:14:58;;;;;;;2.30;2.10;;;;;;;13.64;80.61;97506.20;108714;1256;94169;-86
2023/08/10 02:17:35;;;;;;;2.30;1.80;;;;;;;13.64;80.63;97505.60;108567;1256;102383;-85
2023/08/10 02:20:11;;;;;;;2.30;1.80;;;;;;;13.62;80.54;97505.42;108647;1255;101905;-87
2023/08/10 02:22:42;;;;;;;1.80;1.70;;;;;;;13.58;80.52;97509.39;108661;1256;100057;-87
2023/08/10 02:25:10;;;;;;;2.00;1.80;;;;;;;13.57;80.54;97511.85;108647;1255;94147;-86
2023/08/10 02:27:39;;;;;;;3.50;1.80;;;;;;;13.54;80.70;97508.88;108662;1257;94719;-85
2023/08/10 02:30:09;;;;;;;3.30;1.80;;;;;;;13.53;80.75;97508.98;108331;1257;102311;-86
2023/08/10 02:32:37;;;;;;;4.40;1.90;;;;;;;13.53;80.65;97505.77;108365;1257;100025;-86
2023/08/10 02:35:06;;;;;;;4.40;1.90;;;;;;;13.52;80.79;97502.38;108130;1263;99952;-87
2023/08/10 02:37:34;;;;;;;2.10;1.90;;;;;;;13.50;80.90;97500.07;108117;1264;94365;-86
2023/08/10 02:40:06;;;;;;;3.80;1.90;;;;;;;13.50;80.71;97493.32;108081;1263;94734;-86
2023/08/10 02:42:34;;;;;;;3.00;1.80;;;;;;;13.48;80.78;97493.66;108239;1262;102542;-85
2023/08/10 02:45:02;;;;;;;2.70;1.60;;;;;;;13.47;80.66;97496.89;108218;1264;101693;-86
2023/08/10 02:47:30;;;;;;;2.60;2.00;;;;;;;13.44;80.64;97495.74;108166;1262;98270;-85
2023/08/10 02:49:57;;;;;;;3.10;2.20;;;;;;;13.37;80.75;97497.02;108051;1263;94299;-85
2023/08/10 02:52:25;;;;;;;4.40;2.30;;;;;;;13.33;80.84;97499.63;108147;1262;94629;-86
2023/08/10 02:54:53;;;;;;;4.60;2.60;;;;;;;13.33;80.86;97502.00;108188;1263;102083;-86
2023/08/10 02:57:20;;;;;;;3.40;2.70;;;;;;;13.33;80.94;97502.27;108177;1262;108205;-85
2023/08/10 02:59:48;;;;;;;4.50;2.60;;;;;;;13.32;81.08;97502.85;108114;1263;99090;-85
2023/08/10 03:02:17;;;;;;;7.00;2.90;;;;;;;13.32;80.93;97509.52;108114;1260;94304;-85
2023/08/10 03:04:45;;;;;;;7.40;3.00;;;;;;;13.30;80.95;97509.33;108177;1260;94666;-84
2023/08/10 03:07:14;;;;;;;3.50;2.20;;;;;;;13.28;80.83;97513.61;108464;1257;102486;-86
2023/08/10 03:09:42;;;;;;;4.10;2.40;;;;;;;13.24;80.91;97517.26;108525;1256;101481;-86
2023/08/10 03:12:10;;;;;;;2.30;1.90;;;;;;;13.19;80.77;97516.92;108429;1257;100559;-86
2023/08/10 03:14:37;;;;;;;2.60;1.70;;;;;;;13.17;81.08;97517.94;108450;1257;94229;-86
2023/08/10 03:17:05;;;;;;;2.80;1.70;;;;;;;13.16;81.03;97523.71;108501;1257;94409;-85
2023/08/10 03:19:33;;;;;;;5.00;2.00;;;;;;;13.14;81.10;97524.92;108536;1256;101305;-86
2023/08/10 03:22:01;;;;;;;4.50;2.00;;;;;;;13.13;80.97;97523.82;108271;1259;101355;-85
2023/08/10 03:24:28;;;;;;;4.20;1.80;;;;;;;13.11;81.07;97526.20;108267;1259;100135;-86
2023/08/10 03:26:56;;;;;;;1.60;1.50;;;;;;;13.09;81.11;97529.77;108284;1259;94668;-86
2023/08/10 03:29:24;;;;;;;3.80;1.70;;;;;;;13.08;81.12;97532.27;108263;1259;94613;-86
2023/08/10 03:31:51;;;;;;;3.50;1.90;;;;;;;13.08;81.02;97531.77;108259;1259;101199;-86
2023/08/10 03:34:19;;;;;;;2.10;1.80;;;;;;;13.08;81.15;97534.36;108257;1259;102876;-86
2023/08/10 03:36:47;;;;;;;5.10;2.10;;;;;;;13.07;81.35;97541.13;108260;1259;99980;-86
2023/08/10 03:39:14;;;;;;;2.20;2.00;;;;;;;13.05;81.31;97541.98;108293;1259;94236;-86
2023/08/10 03:41:42;;;;;;;3.50;1.90;;;;;;;13.02;81.38;97541.95;108291;1260;94680;-86
2023/08/10 03:44:10;;;;;;;4.50;1.80;;;;;;;12.99;81.59;97538.92;108276;1260;101949;-87
2023/08/10 03:46:38;;;;;;;2.50;2.30;;;;;;;12.94;81.68;97540.38;108295;1259;101766;-87
2023/08/10 03:49:05;;;;;;;4.20;2.00;;;;;;;12.93;81.73;97543.55;108232;1259;99946;-86
2023/08/10 03:51:33;;;;;;;5.20;2.30;;;;;;;12.96;81.85;97547.11;108396;1257;94350;-88
2023/08/10 03:54:01;;;;;;;3.00;2.10;;;;;;;12.99;82.03;97551.77;108447;1256;94603;-86
2023/08/10 03:56:29;;;;;;;2.70;2.20;;;;;;;13.00;81.98;97555.55;108506;1256;102359;-85
2023/08/10 03:58:56;;;;;;;4.10;2.40;;;;;;;12.99;81.99;97557.38;108514;1256;101620;-85
2023/08/10 04:01:24;;;;;;;6.50;2.40;;;;;;;13.02;82.10;97561.41;108293;1260;99889;-87
2023/08/10 04:03:52;;;;;;;4.80;2.30;;;;;;;13.04;82.08;97563.05;108237;1259;94256;-86
2023/08/10 04:06:19;;;;;;;2.80;2.40;;;;;;;13.06;82.14;97567.23;108272;1259;94761;-86
2023/08/10 04:08:47;;;;;;;7.30;3.10;;;;;;;13.09;82.30;97567.54;108327;1259;102521;-86
2023/08/10 04:11:15;;;;;;;5.30;2.80;;;;;;;13.09;82.27;97567.20;108364;1259;101723;-86
2023/08/10 04:13:42;;;;;;;3.90;3.30;;;;;;;13.09;82.36;97566.87;108327;1259;100103;-85
2023/08/10 04:16:11;;;;;;;4.80;3.10;;;;;;;13.12;82.51;97562.64;108263;1260;94373;-85
2023/08/10 04:18:39;;;;;;;3.80;2.70;;;;;;;13.16;82.43;97564.04;108318;1259;94669;-85
2023/08/10 04:21:07;;;;;;;4.10;3.20;;;;;;;13.20;82.49;97553.98;108369;1259;111232;-86
2023/08/10 04:23:35;;;;;;;3.20;2.80;;;;;;;13.23;82.67;97553.92;108297;1258;101671;-86
2023/08/10 04:26:02;;;;;;;5.10;3.00;;;;;;;13.27;82.43;97559.46;108236;1259;108940;-86
2023/08/10 04:28:32;;;;;;;6.80;3.30;;;;;;;13.31;82.37;97559.84;108278;1259;94277;-87
2023/08/10 04:31:00;;;;;;;5.50;3.00;;;;;;;13.35;82.42;97562.39;108309;1259;94431;-86
2023/08/10 04:33:28;;;;;;;5.50;3.90;;;;;;;13.38;82.47;97564.25;108258;1259;103239;-87
2023/08/10 04:35:56;;;;;;;7.30;4.20;;;;;;;13.41;82.52;97569.29;108281;1259;101592;-86
2023/08/10 04:38:24;;;;;;;5.90;4.20;;;;;;;13.42;82.42;97568.52;108250;1259;100031;-86
2023/08/10 04:40:51;;;;;;;5.40;4.40;;;;;;;13.43;82.46;97568.00;108237;1260;94213;-84
2023/08/10 04:43:19;;;;;;;4.30;3.90;;;;;;;13.42;82.12;97565.98;108200;1259;94697;-86
2023/08/10 04:45:47;;;;;;;6.50;4.30;;;;;;;13.41;82.37;97568.59;108254;1259;102324;-85
2023/08/10 04:48:15;;;;;;;7.60;4.20;;;;;;;13.41;82.32;97572.66;108250;1259;101649;-84
2023/08/10 04:50:43;;;;;;;4.60;4.10;;;;;;;13.42;82.40;97576.37;108279;1258;100250;-84
2023/08/10 04:53:10;;;;;;;5.30;4.80;;;;;;;13.40;82.33;97580.27;108311;1259;94793;-84
2023/08/10 04:55:38;;;;;;;5.70;4.50;;;;;;;13.39;82.46;97584.39;108351;1258;94649;-86
2023/08/10 04:58:06;;;;;;;4.90;4.30;;;;;;;13.41;82.47;97586.48;108345;1259;102391;-86
2023/08/10 05:00:34;;;;;;;5.80;4.10;;;;;;;13.43;82.56;97582.86;108300;1259;101599;-86
2023/08/10 05:03:01;;;;;;;5.80;4.30;;;;;;;13.45;82.56;97587.30;108314;1259;100184;-86
2023/08/10 05:05:29;;;;;;;7.40;4.40;;;;;;;13.48;82.57;97587.08;108416;1257;94240;-85
2023/08/10 05:07:57;;;;;;;5.90;4.50;;;;;;;13.50;82.67;97591.44;108544;1256;95481;-84
2023/08/10 05:10:25;;;;;;;4.90;4.20;;;;;;;13.51;82.55;97594.18;108547;1255;102141;-85
2023/08/10 05:12:52;;;;;;;4.80;4.40;;;;;;;13.50;82.56;97593.27;108588;1256;101376;-85
2023/08/10 05:15:20;;;;;;;5.60;4.60;;;;;;;13.49;82.67;97596.71;108527;1256;98755;-84
2023/08/10 05:17:48;;;;;;;4.70;4.20;;;;;;;13.47;82.70;97599.52;108534;1256;94181;-85
2023/08/10 05:20:15;;;;;;;7.80;4.70;;;;;;;13.49;83.00;97600.30;108545;1255;94608;-86
2023/08/10 05:22:44;;;;;;;4.70;4.10;;;;;;;13.53;83.18;97602.16;108585;1256;110190;-85
2023/08/10 05:25:14;;;;;;;4.60;4.20;;;;;;;13.57;83.16;97598.27;108584;1256;101795;-85
2023/08/10 05:27:42;;;;;;;4.20;3.70;;;;;;;13.63;83.10;97602.73;108588;1256;98900;-85
2023/08/10 05:30:11;;;;;;;3.90;3.50;;;;;;;13.69;83.09;97608.77;108575;1256;94191;-86
2023/08/10 05:32:39;;;;;;;5.90;4.40;;;;;;;13.77;82.96;97609.48;108514;1255;94564;-85
2023/08/10 05:35:09;;;;;;;4.10;3.70;;;;;;;13.79;82.60;97611.50;108648;1256;102022;-86
2023/08/10 05:37:38;;;;;;;4.60;4.20;;;;;;;13.76;82.54;97612.84;108620;1256;101649;-85
2023/08/10 05:40:09;;;;;;;3.70;3.20;;;;;;;13.79;82.96;97613.95;108553;1256;108852;-84
2023/08/10 05:42:38;;;;;;;3.60;3.20;;;;;;;13.85;82.79;97613.61;108477;1255;94190;-84
2023/08/10 05:45:07;;;;;;;3.70;3.10;;;;;;;13.91;82.70;97615.48;108531;1256;94659;-85
2023/08/10 05:47:36;;;;;;;3.60;3.30;;;;;;;13.97;82.61;97617.05;108550;1255;102781;-84
2023/08/10 05:50:04;;;;;;;3.60;3.20;;;;;;;14.02;82.48;97612.67;108567;1255;101718;-84
2023/08/10 05:52:32;;;;;;;4.50;3.00;;;;;;;14.08;82.34;97613.66;108636;1254;99922;-84
2023/08/10 05:55:00;;;;;;;3.40;3.10;;;;;;;14.11;82.26;97613.79;108656;1256;94257;-84
2023/08/10 05:57:28;;;;;;;5.20;3.00;;;;;;;14.14;82.30;97615.91;108642;1255;94644;-83
2023/08/10 05:59:55;;;;;;;2.70;2.50;;;;;;;14.17;82.39;97620.51;108677;1256;101997;-84
2023/08/10 06:02:23;;;;;;;3.10;2.70;;;;;;;14.20;82.03;97620.02;108618;1256;101597;-85
2023/08/10 06:04:52;;;;;;;3.80;3.00;;;;;;;14.24;82.01;97622.02;108633;1256;100021;-84
2023/08/10 06:07:19;;;;;;;5.30;3.00;;;;;;;14.34;82.05;97618.16;108616;1255;94303;-85
2023/08/10 06:09:47;;;;;;;3.90;3.50;;;;;;;14.45;82.11;97616.27;108659;1256;94623;-85
2023/08/10 06:12:16;;;;;;;6.00;3.10;;;;;;;14.54;81.66;97616.70;108578;1257;102255;-83
2023/08/10 06:14:44;;;;;;;5.50;3.40;;;;;;;14.63;81.30;97620.23;108673;1255;101773;-83
2023/08/10 06:17:11;;;;;;;3.70;3.40;;;;;;;14.72;81.03;97622.44;108637;1256;100112;-84
2023/08/10 06:19:39;;;;;;;5.00;3.50;;;;;;;14.80;80.91;97625.83;108618;1256;94214;-84
2023/08/10 06:22:07;;;;;;;5.10;3.50;;;;;;;14.85;81.02;97625.79;108632;1255;94568;-82
2023/08/10 06:24:35;;;;;;;4.50;3.50;;;;;;;14.89;80.69;97623.71;108657;1254;102476;-83
2023/08/10 06:27:03;;;;;;;5.90;3.70;;;;;;;14.95;80.59;97629.48;108686;1256;101541;-84
2023/08/10 06:29:31;;;;;;;5.00;3.90;;;;;;;14.99;80.60;97633.00;108653;1255;108823;-83
2023/08/10 06:31:58;;;;;;;5.20;3.70;;;;;;;15.02;80.40;97631.33;108633;1255;94596;-84
2023/08/10 06:34:26;;;;;;;5.60;4.00;;;;;;;15.08;80.41;97632.52;108648;1255;94662;-84
2023/08/10 06:36:54;;;;;;;4.80;3.70;;;;;;;15.16;80.21;97634.45;108572;1256;109473;-82
2023/08/10 06:39:21;;;;;;;5.70;5.10;;;;;;;15.24;79.91;97633.71;108531;1255;101581;-82
2023/08/10 06:41:49;;;;;;;6.40;4.40;;;;;;;15.30;79.52;97634.80;108640;1255;100171;-82
2023/08/10 06:44:17;;;;;;;5.80;5.20;;;;;;;15.34;79.44;97638.09;108517;1255;94608;-83
2023/08/10 06:46:44;;;;;;;7.00;5.10;;;;;;;15.39;79.39;97641.48;108593;1256;94615;-81
2023/08/10 06:49:12;;;;;;;7.50;5.30;;;;;;;15.45;79.04;97642.39;108659;1254;109925;-82
2023/08/10 06:51:40;;;;;;;6.30;5.20;;;;;;;15.49;78.90;97641.42;108697;1256;101634;-84
2023/08/10 06:54:07;;;;;;;6.20;4.90;;;;;;;15.54;78.81;97644.51;108645;1255;100124;-83
2023/08/10 06:56:36;;;;;;;5.60;5.00;;;;;;;15.59;78.89;97642.58;108661;1255;94171;-83
2023/08/10 06:59:04;;;;;;;5.00;4.50;;;;;;;15.64;78.48;97645.68;108657;1255;94561;-84
2023/08/10 07:01:32;;;;;;;6.20;4.60;;;;;;;15.68;78.43;97648.51;108674;1256;102379;-84
2023/08/10 07:04:00;;;;;;;6.90;5.10;;;;;;;15.71;78.52;97648.02;108681;1255;101590;-84
2023/08/10 07:06:28;;;;;;;6.20;5.00;;;;;;;15.75;78.40;97648.27;108627;1255;100098;-84
2023/08/10 07:08:56;;;;;;;5.10;4.60;;;;;;;15.80;78.24;97648.17;108585;1256;94313;-83
2023/08/10 07:11:24;;;;;;;4.80;4.30;;;;;;;15.86;78.30;97651.13;108687;1256;94692;-84
2023/08/10 07:13:52;;;;;;;5.10;4.60;;;;;;;15.94;78.07;97652.43;108643;1255;102373;-83
2023/08/10 07:16:19;;;;;;;5.20;4.50;;;;;;;16.02;77.93;97653.44;108642;1255;109280;-84
2023/08/10 07:18:47;;;;;;;8.60;4.70;;;;;;;16.10;77.80;97653.02;108638;1255;108539;-83
2023/08/10 07:21:15;;;;;;;5.60;4.30;;;;;;;16.15;77.61;97656.83;108604;1255;94178;-83
2023/08/10 07:23:43;;;;;;;4.70;4.10;;;;;;;16.16;77.25;97659.36;108643;1256;94608;-82
2023/08/10 07:26:11;;;;;;;4.80;4.30;;;;;;;16.20;76.89;97660.98;108698;1255;102354;-83
2023/08/10 07:28:38;;;;;;;5.50;4.60;;;;;;;16.27;76.70;97658.69;108644;1255;109098;-82
2023/08/10 07:31:06;;;;;;;7.40;4.30;;;;;;;16.33;76.41;97658.70;108631;1254;100084;-83
2023/08/10 07:33:34;;;;;;;4.50;4.00;;;;;;;16.40;76.35;97661.02;108615;1255;94228;-82
2023/08/10 07:36:02;;;;;;;6.10;3.90;;;;;;;16.47;76.35;97666.00;108685;1254;94640;-82
2023/08/10 07:38:29;;;;;;;5.60;3.90;;;;;;;16.50;75.82;97670.39;108654;1256;102481;-82
2023/08/10 07:40:57;;;;;;;4.80;3.40;;;;;;;16.49;75.70;97675.30;108712;1254;100939;-81
2023/08/10 07:43:25;;;;;;;6.60;4.00;;;;;;;16.45;75.36;97677.52;108727;1254;99979;-83
2023/08/10 07:45:54;;;;;;;4.60;4.10;;;;;;;16.40;75.39;97680.52;108636;1256;94155;-81
2023/08/10 07:48:21;;;;;;;4.40;3.40;;;;;;;16.36;74.96;97677.05;108563;1255;94589;-83
2023/08/10 07:50:50;;;;;;;5.80;3.70;;;;;;;16.30;74.92;97675.47;108619;1256;109964;-82
2023/08/10 07:53:18;;;;;;;4.90;4.10;;;;;;;16.25;74.90;97675.10;108688;1254;101585;-84
2023/08/10 07:55:46;;;;;;;7.10;4.20;;;;;;;16.16;74.88;97680.00;108678;1255;99813;-83
2023/08/10 07:58:14;;;;;;;5.50;4.00;;;;;;;16.12;74.73;97677.20;108641;1255;94236;-83
2023/08/10 08:00:43;;;;;;;5.00;4.40;;;;;;;16.09;74.76;97677.05;108663;1255;94651;-83
2023/08/10 08:03:11;;;;;;;5.60;4.00;;;;;;;16.07;74.78;97673.67;108635;1255;102413;-82
2023/08/10 08:05:40;;;;;;;5.40;4.30;;;;;;;16.09;74.92;97671.27;108627;1255;111072;-82
2023/08/10 08:08:08;;;;;;;4.80;4.10;;;;;;;16.12;74.80;97675.70;108651;1254;100204;-84
2023/08/10 08:10:37;;;;;;;6.40;4.00;;;;;;;16.20;74.75;97674.29;108607;1255;94172;-83
2023/08/10 08:13:06;;;;;;;7.70;4.10;;;;;;;16.50;74.92;97674.52;108619;1256;94387;-84
2023/08/10 08:15:38;;;;;;;5.30;4.20;;;;;;;16.94;74.86;97677.98;108665;1256;102470;-84
2023/08/10 08:18:43;;;;;;;4.20;3.80;;;;;;;17.14;74.15;97677.20;108684;1255;101651;-82
2023/08/10 08:21:13;;;;;;;6.80;4.10;;;;;;;17.18;73.44;97673.95;108613;1256;100079;-83
2023/08/10 08:23:41;;;;;;;4.70;3.90;;;;;;;17.20;73.15;97674.91;108634;1254;94182;-82
2023/08/10 08:26:09;;;;;;;5.00;4.30;;;;;;;17.19;72.95;97677.35;108661;1256;94528;-83
2023/08/10 08:28:37;;;;;;;5.00;3.80;;;;;;;17.17;72.81;97679.39;108673;1256;102213;-83
2023/08/10 08:31:06;;;;;;;5.90;4.10;;;;;;;17.15;72.59;97678.48;108692;1256;101384;-82
2023/08/10 08:33:35;;;;;;;5.50;3.10;;;;;;;17.13;72.19;97677.25;108664;1254;99120;-82
2023/08/10 08:36:03;;;;;;;3.10;2.80;;;;;;;17.10;71.86;97678.28;108641;1256;94197;-85
2023/08/10 08:38:32;;;;;;;2.60;2.40;;;;;;;17.07;71.72;97681.39;108682;1256;94760;-83
2023/08/10 08:41:10;;;;;;;3.60;3.00;;;;;;;17.05;71.38;97679.88;108682;1256;102368;-83
2023/08/10 08:43:39;;;;;;;5.70;3.10;;;;;;;17.06;71.23;97680.12;108543;1255;101422;-84
2023/08/10 08:46:07;;;;;;;4.20;3.50;;;;;;;17.07;71.03;97678.00;108643;1256;99098;-84
2023/08/10 08:48:36;;;;;;;4.70;3.50;;;;;;;17.08;71.02;97675.95;108638;1254;94138;-82
2023/08/10 08:51:06;;;;;;;6.10;3.40;;;;;;;17.14;71.00;97670.83;108676;1254;94649;-83
2023/08/10 08:53:34;;;;;;;5.00;3.50;;;;;;;17.19;70.74;97670.09;108638;1256;102216;-84
2023/08/10 08:56:02;;;;;;;4.10;3.60;;;;;;;17.23;70.47;97670.23;108668;1255;101601;-83
2023/08/10 08:58:30;;;;;;;4.00;3.50;;;;;;;17.29;70.59;97672.22;108709;1254;100206;-84
2023/08/10 09:00:58;;;;;;;5.00;3.10;;;;;;;17.33;70.63;97674.48;108643;1256;94234;-83
2023/08/10 09:03:27;;;;;;;4.20;3.10;;;;;;;17.43;70.47;97673.71;108658;1255;94686;-84
2023/08/10 09:05:55;;;;;;;3.70;2.80;;;;;;;17.68;69.91;97681.44;108712;1256;102600;-84
2023/08/10 09:08:24;;;;;;;4.20;3.60;;;;;;;18.29;70.24;97682.41;108685;1256;101415;-82
2023/08/10 09:10:51;;;;;;;4.40;2.90;;;;;;;18.99;69.70;97681.20;108663;1255;100080;-83
2023/08/10 09:13:23;;;;;;;4.40;3.00;;;;;;;19.78;69.29;97678.67;108669;1255;94172;-84
2023/08/10 09:16:11;;;;;;;3.20;2.90;;;;;;;20.52;68.35;97672.23;108740;1254;94436;-82
2023/08/10 09:18:43;;;;;;;4.60;3.10;;;;;;;21.14;66.81;97673.09;108723;1254;109994;-82
2023/08/10 09:21:19;;;;;;;3.60;2.80;;;;;;;21.62;66.17;97674.27;108390;1257;102116;-84
2023/08/10 09:23:51;;;;;;;2.60;2.40;;;;;;;21.80;64.68;97676.73;108309;1257;100152;-84
2023/08/10 09:26:21;;;;;;;4.10;2.60;;;;;;;21.53;63.25;97674.66;108323;1259;94288;-84
2023/08/10 09:28:50;;;;;;;5.60;3.10;;;;;;;21.24;62.90;97673.27;108382;1258;94153;-84
2023/08/10 09:31:28;;;;;;;4.70;3.70;;;;;;;20.94;62.74;97667.77;108414;1257;102552;-83
2023/08/10 09:33:58;;;;;;;5.90;3.20;;;;;;;20.72;63.21;97671.07;108359;1259;101597;-84
2023/08/10 09:36:27;;;;;;;3.70;3.00;;;;;;;20.56;62.86;97670.68;108367;1258;100318;-84
2023/08/10 09:38:56;;;;;;;2.90;2.60;;;;;;;20.30;62.66;97669.34;108333;1257;94230;-83
2023/08/10 09:41:25;;;;;;;3.40;2.50;;;;;;;20.11;63.32;97665.08;108360;1260;94700;-84
2023/08/10 09:43:52;;;;;;;4.90;3.70;;;;;;;19.96;63.41;97666.76;108142;1263;102388;-84
2023/08/10 09:46:20;;;;;;;3.90;3.50;;;;;;;19.71;63.08;97669.38;108081;1263;101592;-82
2023/08/10 09:48:49;;;;;;;4.00;3.40;;;;;;;19.48;63.41;97670.49;108139;1262;100214;-82
2023/08/10 09:51:17;;;;;;;3.80;3.20;;;;;;;19.35;63.59;97672.13;108154;1262;94493;-83
2023/08/10 09:53:45;;;;;;;5.00;3.60;;;;;;;19.26;63.75;97675.39;108317;1259;94296;-83
2023/08/10 09:56:13;;;;;;;5.00;3.60;;;;;;;19.17;63.82;97677.11;108289;1259;102222;-83
2023/08/10 09:58:42;;;;;;;3.60;3.20;;;;;;;19.06;63.67;97678.84;108280;1259;108449;-83
2023/08/10 10:01:10;;;;;;;4.00;3.00;;;;;;;19.02;63.55;97678.67;108236;1259;100639;-83
2023/08/10 10:03:38;;;;;;;5.90;3.20;;;;;;;18.96;63.74;97680.91;108251;1259;94326;-83
2023/08/10 10:06:07;;;;;;;4.00;3.00;;;;;;;18.85;63.79;97683.10;108317;1259;94254;-82
2023/08/10 10:08:36;;;;;;;5.00;3.50;;;;;;;18.66;63.77;97684.91;108312;1259;102597;-83
2023/08/10 10:11:10;;;;;;;5.40;3.50;;;;;;;18.49;64.16;97688.67;108288;1258;102919;-84
2023/08/10 10:13:39;;;;;;;3.70;3.40;;;;;;;18.43;63.88;97687.67;108260;1259;98860;-83
2023/08/10 10:16:08;;;;;;;4.00;3.20;;;;;;;18.40;63.43;97689.75;108583;1255;94230;-83
2023/08/10 10:18:37;;;;;;;3.20;2.90;;;;;;;18.35;63.68;97689.27;108682;1255;94108;-84
2023/08/10 10:21:05;;;;;;;3.10;2.70;;;;;;;18.29;63.79;97691.05;108693;1255;102200;-84
2023/08/10 10:23:33;;;;;;;5.90;3.30;;;;;;;18.25;63.53;97697.88;108723;1255;101687;-83
2023/08/10 10:26:03;;;;;;;5.70;3.40;;;;;;;18.21;63.86;97696.02;108645;1256;100089;-83
2023/08/10 10:28:32;;;;;;;5.40;3.10;;;;;;;18.16;64.32;97695.90;108220;1259;94336;-83
2023/08/10 10:31:07;;;;;;;3.70;3.40;;;;;;;18.17;64.85;97689.30;108269;1259;94614;-83
2023/08/10 10:33:38;;;;;;;3.50;3.20;;;;;;;18.17;64.41;97689.02;108239;1259;102222;-82
2023/08/10 10:36:14;;;;;;;3.70;3.30;;;;;;;18.19;64.57;97685.02;108225;1259;101567;-83
2023/08/10 10:38:46;;;;;;;3.60;3.30;;;;;;;18.20;64.43;97683.79;108261;1258;99965;-83
2023/08/10 10:41:15;;;;;;;;;;;;;;;18.24;64.72;97683.98;108258;1259;94377;-82
2023/08/10 10:43:45;;;;;;;4.90;3.30;;;;;;;18.32;64.74;97679.84;108256;1259;94585;-83
2023/08/10 10:46:36;;;;;;;6.20;3.30;;;;;;;18.39;64.53;97679.91;108179;1259;102331;-83
2023/08/10 10:49:11;;;;;;;3.40;3.10;;;;;;;18.40;63.87;97683.64;108131;1259;102032;-82
2023/08/10 10:51:59;;;;;;;4.80;3.20;;;;;;;18.45;63.53;97682.56;108171;1263;100127;-83
2023/08/10 10:54:34;;;;;;;5.40;3.50;;;;;;;18.53;63.49;97680.07;108119;1259;94372;-82
2023/08/10 10:57:02;;;;;;;8.10;4.50;;;;;;;18.57;63.71;97677.86;108185;1259;94648;-82
2023/08/10 10:59:30;;;;;;;5.10;4.10;;;;;;;18.58;63.49;97675.64;108356;1256;109727;-82
2023/08/10 11:01:59;;;;;;;6.00;4.10;;;;;;;18.62;63.19;97676.55;108512;1257;101610;-82
2023/08/10 11:04:26;;;;;;;5.10;4.40;;;;;;;18.72;63.30;97671.47;108420;1256;133135;-80
2023/08/10 11:07:00;;;;;;;6.60;4.20;;;;;;;18.85;63.51;97671.66;108496;1255;94212;-81
2023/08/10 11:09:27;;;;;;;4.40;4.00;;;;;;;19.04;63.80;97666.81;108506;1255;94458;-82
2023/08/10 11:11:55;;;;;;;7.60;4.10;;;;;;;19.36;63.61;97660.77;108552;1257;102484;-82
2023/08/10 11:14:28;;;;;;;5.40;4.50;;;;;;;19.65;63.34;97658.21;108499;1256;101594;-83
2023/08/10 11:16:55;;;;;;;;;;;;;;;19.83;62.77;97659.15;108220;1259;99803;-82
2023/08/10 11:19:23;;;;;;;7.40;5.20;;;;;;;20.09;62.64;97651.68;108220;1260;94333;-82
2023/08/10 11:21:51;;;;;;;6.60;4.20;;;;;;;20.43;62.34;97655.21;108192;1260;94817;-83
2023/08/10 11:24:19;;;;;;;4.00;3.60;;;;;;;20.78;61.32;97650.61;108250;1259;102593;-82
2023/08/10 11:26:50;;;;;;;4.20;3.10;;;;;;;21.10;60.32;97650.29;108051;1264;108669;-82
2023/08/10 11:29:20;;;;;;;4.70;3.50;;;;;;;21.29;59.75;97647.08;107988;1263;100250;-83
2023/08/10 11:31:49;;;;;;;4.60;3.30;;;;;;;21.64;59.96;97650.09;107981;1264;94654;-83